createdAt,value
2018-07-03T00:02:18.133Z,52.20
2018-07-03T00:04:55.223Z,51.70
2018-07-03T00:07:34.317Z,51.40
2018-07-03T00:10:11.367Z,50.60
2018-07-03T00:12:51.442Z,50.20
2018-07-03T00:15:29.508Z,50.00
2018-07-03T00:18:06.427Z,49.80
2018-07-03T00:20:43.207Z,49.60
2018-07-03T00:23:21.478Z,50.00
2018-07-03T00:25:59.428Z,50.40
2018-07-03T00:28:39.757Z,51.60
2018-07-03T00:31:16.941Z,51.60
2018-07-03T00:33:52.960Z,52.50
2018-07-03T00:36:29.400Z,52.70
2018-07-03T00:39:09.305Z,53.00
2018-07-03T00:41:45.208Z,52.40
2018-07-03T00:44:22.833Z,52.40
2018-07-03T00:47:00.291Z,52.50
2018-07-03T00:49:36.843Z,51.40
2018-07-03T00:52:13.732Z,51.70
2018-07-03T00:54:50.538Z,52.10
2018-07-03T00:57:27.387Z,52.50
2018-07-03T01:00:19.951Z,53.00
2018-07-03T01:02:57.444Z,52.40
2018-07-03T01:05:34.468Z,52.50
2018-07-03T01:08:10.624Z,52.60
2018-07-03T01:10:48.298Z,53.40
2018-07-03T01:13:26.296Z,53.30
2018-07-03T01:16:03.339Z,53.50
2018-07-03T01:18:40.020Z,54.10
2018-07-03T01:21:18.016Z,54.10
2018-07-03T01:23:54.347Z,54.80
2018-07-03T01:26:31.376Z,54.50
2018-07-03T01:29:09.224Z,54.90
2018-07-03T01:31:45.954Z,55.30
2018-07-03T01:34:23.224Z,55.10
2018-07-03T01:36:59.276Z,55.20
2018-07-03T01:39:37.804Z,55.80
2018-07-03T01:42:15.517Z,55.50
2018-07-03T01:44:52.311Z,55.50
2018-07-03T01:47:29.016Z,55.70
2018-07-03T01:50:06.033Z,56.20
2018-07-03T01:52:44.743Z,56.10
2018-07-03T01:55:21.466Z,56.30
2018-07-03T01:57:58.728Z,56.30
2018-07-03T02:00:35.696Z,56.20
2018-07-03T02:03:12.384Z,56.50
2018-07-03T02:05:48.527Z,56.10
2018-07-03T02:08:24.296Z,56.60
2018-07-03T02:11:01.092Z,57.30
2018-07-03T02:13:38.740Z,57.30
2018-07-03T02:16:15.865Z,57.60
2018-07-03T02:18:53.487Z,57.90
2018-07-03T02:21:30.393Z,58.10
2018-07-03T02:24:06.937Z,58.50
2018-07-03T02:26:43.349Z,58.50
2018-07-03T02:29:19.743Z,58.70
2018-07-03T02:31:57.068Z,58.80
2018-07-03T02:34:33.544Z,58.80
2018-07-03T02:37:10.124Z,59.60
2018-07-03T02:39:49.131Z,59.30
2018-07-03T02:42:26.592Z,59.10
2018-07-03T02:45:03.592Z,59.00
2018-07-03T02:47:41.043Z,58.60
2018-07-03T02:50:18.258Z,59.10
2018-07-03T02:52:55.307Z,59.50
2018-07-03T02:55:33.590Z,59.80
2018-07-03T02:58:11.708Z,60.40
2018-07-03T03:00:49.916Z,60.40
2018-07-03T03:03:27.189Z,60.50
2018-07-03T03:06:03.735Z,60.60
2018-07-03T03:11:23.276Z,61.60
2018-07-03T03:16:39.405Z,61.80
2018-07-03T03:19:16.438Z,62.00
2018-07-03T03:21:52.923Z,62.10
2018-07-03T03:24:29.736Z,62.00
2018-07-03T03:27:06.552Z,62.50
2018-07-03T03:29:43.173Z,62.60
2018-07-03T03:32:19.512Z,62.60
2018-07-03T03:34:56.505Z,62.10
2018-07-03T03:37:35.015Z,62.60
2018-07-03T03:40:11.393Z,62.90
2018-07-03T03:45:26.648Z,63.10
2018-07-03T03:48:04.524Z,63.70
2018-07-03T03:50:41.311Z,63.90
2018-07-03T03:53:18.001Z,64.40
2018-07-03T03:55:56.386Z,64.50
2018-07-03T03:58:34.378Z,65.70
2018-07-03T04:03:49.650Z,66.40
2018-07-03T04:06:27.653Z,66.90
2018-07-03T04:09:06.549Z,66.90
2018-07-03T04:11:42.449Z,66.70
2018-07-03T04:14:18.618Z,67.10
2018-07-03T04:16:55.539Z,66.40
2018-07-03T04:19:32.530Z,66.20
2018-07-03T04:22:10.643Z,66.20
2018-07-03T04:24:47.604Z,66.00
2018-07-03T04:30:03.584Z,64.90
2018-07-03T04:32:40.844Z,65.00
2018-07-03T04:35:18.594Z,65.00
2018-07-03T04:37:55.472Z,64.40
2018-07-03T04:40:33.648Z,64.40
2018-07-03T04:43:10.305Z,63.90
2018-07-03T04:45:50.397Z,64.10
2018-07-03T04:48:28.988Z,63.60
2018-07-03T04:51:06.666Z,63.40
2018-07-03T04:53:42.729Z,62.50
2018-07-03T04:56:21.049Z,62.10
2018-07-03T04:58:57.781Z,62.00
2018-07-03T05:01:35.869Z,61.00
2018-07-03T05:04:13.388Z,60.40
2018-07-03T05:06:51.058Z,60.20
2018-07-03T05:09:28.688Z,59.70
2018-07-03T05:12:06.674Z,58.70
2018-07-03T05:14:45.109Z,58.70
2018-07-03T05:17:22.068Z,58.40
2018-07-03T05:19:59.101Z,57.50
2018-07-03T05:22:37.496Z,56.80
2018-07-03T05:25:13.984Z,54.40
2018-07-03T05:27:50.541Z,52.50
2018-07-03T05:30:27.269Z,50.70
2018-07-03T05:33:04.520Z,51.10
2018-07-03T05:35:42.720Z,51.90
2018-07-03T05:38:21.060Z,52.10
2018-07-03T05:41:00.090Z,52.30
2018-07-03T05:43:36.945Z,52.00
2018-07-03T05:46:13.792Z,53.20
2018-07-03T05:48:51.620Z,53.90
2018-07-03T05:51:27.503Z,53.70
2018-07-03T05:54:06.751Z,53.70
2018-07-03T05:56:43.408Z,53.10
2018-07-03T05:59:20.117Z,53.50
2018-07-03T06:01:57.507Z,52.70
2018-07-03T06:04:35.280Z,52.60
2018-07-03T06:07:12.614Z,51.80
2018-07-03T06:09:50.292Z,54.00
2018-07-03T06:12:26.916Z,54.10
2018-07-03T06:15:05.868Z,51.80
2018-07-03T06:17:42.260Z,51.80
2018-07-03T06:20:18.543Z,51.60
2018-07-03T06:22:55.656Z,51.90
2018-07-03T06:25:32.416Z,51.80
2018-07-03T06:28:08.417Z,51.70
2018-07-03T06:30:45.967Z,51.80
2018-07-03T06:33:22.509Z,52.40
2018-07-03T06:36:00.453Z,51.70
2018-07-03T06:38:38.088Z,51.20
2018-07-03T06:41:16.298Z,50.90
2018-07-03T06:43:54.436Z,50.70
2018-07-03T06:46:31.842Z,49.90
2018-07-03T06:49:09.461Z,50.70
2018-07-03T06:51:47.855Z,49.60
2018-07-03T06:54:25.864Z,49.50
2018-07-03T06:57:03.072Z,48.20
2018-07-03T06:59:40.410Z,47.60
2018-07-03T07:02:17.561Z,48.50
2018-07-03T07:04:54.971Z,48.20
2018-07-03T07:07:32.711Z,46.70
2018-07-03T07:10:09.676Z,45.70
2018-07-03T07:12:47.364Z,45.40
2018-07-03T07:15:23.724Z,45.40
2018-07-03T07:18:00.201Z,45.50
2018-07-03T07:20:37.085Z,45.40
2018-07-03T07:23:15.307Z,44.80
2018-07-03T07:25:52.472Z,43.80
2018-07-03T07:28:30.228Z,43.70
2018-07-03T07:31:08.581Z,42.60
2018-07-03T07:33:45.346Z,42.60
2018-07-03T07:36:21.669Z,42.50
2018-07-03T07:38:57.901Z,42.40
2018-07-03T07:41:36.080Z,42.50
2018-07-03T07:44:13.191Z,42.50
2018-07-03T07:46:50.221Z,42.00
2018-07-03T07:49:27.962Z,41.40
2018-07-03T07:52:05.054Z,41.70
2018-07-03T07:54:43.136Z,40.70
2018-07-03T07:57:21.681Z,40.40
2018-07-03T07:59:58.542Z,40.10
2018-07-03T08:02:36.403Z,38.50
2018-07-03T08:05:14.438Z,37.90
2018-07-03T08:07:51.700Z,34.20
2018-07-03T08:10:29.388Z,30.40
2018-07-03T08:13:07.626Z,27.70
2018-07-03T08:15:44.820Z,25.40
2018-07-03T08:18:22.541Z,23.80
2018-07-03T08:20:59.689Z,24.30
2018-07-03T08:23:37.844Z,24.60
2018-07-03T08:26:15.131Z,23.70
2018-07-03T08:28:51.357Z,23.00
2018-07-03T08:31:28.786Z,23.30
2018-07-03T08:34:06.494Z,22.00
2018-07-03T08:36:43.512Z,21.40
2018-07-03T08:39:20.908Z,21.40
2018-07-03T08:41:58.390Z,21.10
2018-07-03T08:44:35.692Z,20.90
2018-07-03T08:47:13.720Z,21.30
2018-07-03T08:49:51.888Z,21.40
2018-07-03T08:52:28.545Z,21.70
2018-07-03T08:55:05.907Z,21.60
2018-07-03T08:57:43.845Z,21.10
2018-07-03T09:00:20.954Z,20.30
2018-07-03T09:02:58.688Z,20.80
2018-07-03T09:05:35.916Z,20.60
2018-07-03T09:08:13.923Z,21.60
2018-07-03T09:10:52.414Z,22.20
2018-07-03T09:13:30.344Z,22.00
2018-07-03T09:16:07.525Z,22.10
2018-07-03T09:18:44.466Z,22.10
2018-07-03T09:21:21.633Z,21.40
2018-07-03T09:23:58.257Z,21.00
2018-07-03T09:26:35.199Z,20.30
2018-07-03T09:29:12.162Z,20.10
2018-07-03T09:31:49.208Z,20.70
2018-07-03T09:34:27.256Z,21.60
2018-07-03T09:37:06.705Z,19.70
2018-07-03T09:39:44.989Z,19.20
2018-07-03T09:42:22.477Z,19.00
2018-07-03T09:44:59.973Z,20.90
2018-07-03T09:47:38.244Z,22.00
2018-07-03T09:50:15.360Z,20.40
2018-07-03T09:52:52.858Z,20.40
2018-07-03T09:55:28.956Z,20.30
2018-07-03T09:58:06.632Z,20.60
2018-07-03T10:00:49.313Z,20.60
2018-07-03T10:03:28.236Z,20.30
2018-07-03T10:06:06.248Z,19.90
2018-07-03T10:08:43.836Z,20.40
2018-07-03T10:11:21.834Z,20.50
2018-07-03T10:14:00.994Z,20.80
2018-07-03T10:16:38.849Z,20.20
2018-07-03T10:19:15.670Z,19.20
2018-07-03T10:21:53.149Z,19.70
2018-07-03T10:24:30.748Z,19.90
2018-07-03T10:27:08.470Z,19.80
2018-07-03T10:29:45.548Z,19.10
2018-07-03T10:32:22.384Z,19.70
2018-07-03T10:35:00.890Z,19.30
2018-07-03T10:37:38.845Z,21.00
2018-07-03T10:40:16.105Z,20.50
2018-07-03T10:42:52.852Z,19.90
2018-07-03T10:45:31.446Z,21.10
2018-07-03T10:48:07.823Z,21.70
2018-07-03T10:50:45.043Z,20.90
2018-07-03T10:53:22.612Z,20.80
2018-07-03T10:55:59.723Z,19.90
2018-07-03T10:58:37.571Z,20.20
2018-07-03T11:01:16.083Z,21.10
2018-07-03T11:03:56.418Z,19.90
2018-07-03T11:06:33.732Z,20.10
2018-07-03T11:09:12.596Z,20.80
2018-07-03T11:11:50.455Z,19.80
2018-07-03T11:14:27.185Z,19.80
2018-07-03T11:17:03.318Z,20.00
2018-07-03T11:19:42.393Z,20.20
2018-07-03T11:22:19.721Z,19.20
2018-07-03T11:24:58.860Z,18.60
2018-07-03T11:27:36.687Z,18.60
2018-07-03T11:30:14.712Z,18.80
2018-07-03T11:32:52.274Z,18.60
2018-07-03T11:35:30.898Z,18.80
2018-07-03T11:38:09.993Z,18.80
2018-07-03T11:40:46.381Z,18.70
2018-07-03T11:43:23.369Z,18.90
2018-07-03T11:46:01.199Z,18.30
2018-07-03T11:48:39.052Z,18.70
2018-07-03T11:51:17.022Z,18.60
2018-07-03T11:53:53.616Z,19.10
2018-07-03T11:56:30.311Z,19.70
2018-07-03T11:59:09.005Z,19.40
2018-07-03T12:01:46.381Z,19.90
2018-07-03T12:04:23.756Z,19.20
2018-07-03T12:07:01.630Z,18.30
2018-07-03T12:09:40.121Z,19.70
2018-07-03T12:12:18.110Z,19.70
2018-07-03T12:14:54.457Z,21.70
2018-07-03T12:17:32.296Z,20.00
2018-07-03T12:20:10.692Z,19.50
2018-07-03T12:22:47.793Z,18.90
2018-07-03T12:25:25.500Z,19.20
2018-07-03T12:28:03.484Z,18.80
2018-07-03T12:33:18.940Z,19.70
2018-07-03T12:35:56.703Z,19.70
2018-07-03T12:38:33.654Z,20.10
2018-07-03T12:41:11.505Z,21.70
2018-07-03T12:43:47.873Z,22.10
2018-07-03T12:46:25.003Z,21.10
2018-07-03T12:49:01.986Z,20.60
2018-07-03T12:51:39.630Z,20.40
2018-07-03T12:54:16.124Z,20.70
2018-07-03T12:56:55.554Z,20.60
2018-07-03T12:59:33.968Z,20.10
2018-07-03T13:02:10.846Z,20.20
2018-07-03T13:04:51.018Z,20.00
2018-07-03T13:07:28.484Z,19.50
2018-07-03T13:10:05.626Z,19.70
2018-07-03T13:12:42.684Z,18.50
2018-07-03T13:15:20.193Z,19.10
2018-07-03T13:18:02.629Z,20.40
2018-07-03T13:23:19.068Z,20.40
2018-07-03T13:25:57.413Z,19.90
2018-07-03T13:28:34.550Z,20.20
2018-07-03T13:31:12.079Z,20.90
2018-07-03T13:33:48.846Z,20.20
2018-07-03T13:36:26.461Z,20.90
2018-07-03T13:39:06.340Z,21.70
2018-07-03T13:41:44.121Z,20.60
2018-07-03T13:44:21.680Z,20.90
2018-07-03T13:47:00.373Z,22.00
2018-07-03T13:49:36.606Z,21.70
2018-07-03T13:52:13.969Z,21.70
2018-07-03T13:54:50.667Z,21.00
2018-07-03T13:57:28.790Z,20.90
2018-07-03T14:00:07.276Z,21.00
2018-07-03T14:05:21.630Z,21.80
2018-07-03T14:07:59.589Z,21.20
2018-07-03T14:10:36.439Z,21.00
2018-07-03T14:13:13.406Z,20.70
2018-07-03T14:15:51.252Z,20.80
2018-07-03T14:18:29.108Z,21.30
2018-07-03T14:21:05.932Z,20.70
2018-07-03T14:23:42.675Z,21.00
2018-07-03T14:26:20.014Z,21.00
2018-07-03T14:28:56.726Z,22.30
2018-07-03T14:31:36.131Z,22.40
2018-07-03T14:34:13.880Z,22.40
2018-07-03T14:36:50.131Z,22.40
2018-07-03T14:39:26.227Z,21.60
2018-07-03T14:42:03.865Z,22.60
2018-07-03T14:44:41.230Z,22.90
2018-07-03T14:47:20.245Z,22.80
2018-07-03T14:49:58.094Z,23.30
2018-07-03T14:52:35.464Z,23.00
2018-07-03T14:55:12.266Z,22.50
2018-07-03T14:57:50.065Z,22.90
2018-07-03T15:00:28.301Z,23.70
2018-07-03T15:03:06.468Z,23.60
2018-07-03T15:05:43.229Z,23.80
2018-07-03T15:08:20.508Z,23.90
2018-07-03T15:10:58.310Z,23.20
2018-07-03T15:13:35.582Z,24.00
2018-07-03T15:16:11.730Z,23.50
2018-07-03T15:18:54.709Z,23.40
2018-07-03T15:21:33.096Z,23.20
2018-07-03T15:24:11.448Z,23.80
2018-07-03T15:26:48.925Z,24.20
2018-07-03T15:29:27.030Z,24.90
2018-07-03T15:32:03.929Z,24.20
2018-07-03T15:34:40.580Z,25.00
2018-07-03T15:37:19.030Z,24.20
2018-07-03T15:39:56.227Z,25.30
2018-07-03T15:42:33.280Z,25.40
2018-07-03T15:45:13.447Z,25.30
2018-07-03T15:47:49.288Z,25.30
2018-07-03T15:50:26.589Z,25.10
2018-07-03T15:53:04.692Z,25.20
2018-07-03T15:55:42.363Z,25.70
2018-07-03T15:58:19.574Z,25.10
2018-07-03T16:00:57.100Z,25.40
2018-07-03T16:04:15.525Z,25.20
2018-07-03T16:07:11.961Z,25.20
2018-07-03T16:09:48.200Z,24.90
2018-07-03T16:12:27.481Z,25.80
2018-07-03T16:15:04.194Z,26.10
2018-07-03T16:17:40.733Z,26.70
2018-07-03T16:20:25.270Z,26.60
2018-07-03T16:23:03.789Z,26.30
2018-07-03T16:25:41.292Z,26.10
2018-07-03T16:28:18.369Z,26.20
2018-07-03T16:30:54.403Z,26.30
2018-07-03T16:33:31.409Z,27.40
2018-07-03T16:36:10.131Z,27.20
2018-07-03T16:38:48.554Z,27.40
2018-07-03T16:41:26.409Z,27.20
2018-07-03T16:44:02.373Z,27.10
2018-07-03T16:46:40.583Z,27.40
2018-07-03T16:49:18.960Z,27.40
2018-07-03T16:51:55.907Z,28.00
2018-07-03T16:54:32.720Z,28.00
2018-07-03T16:57:09.680Z,28.30
2018-07-03T16:59:46.424Z,28.80
2018-07-03T17:02:25.396Z,27.80
2018-07-03T17:05:03.460Z,28.30
2018-07-03T17:07:40.469Z,28.20
2018-07-03T17:10:18.064Z,28.30
2018-07-03T17:12:56.742Z,28.40
2018-07-03T17:15:33.756Z,28.60
2018-07-03T17:18:11.804Z,29.40
2018-07-03T17:20:47.939Z,29.20
2018-07-03T17:23:25.492Z,29.20
2018-07-03T17:26:03.313Z,28.80
2018-07-03T17:28:40.574Z,29.00
2018-07-03T17:31:17.912Z,29.10
2018-07-03T17:33:56.931Z,29.20
2018-07-03T17:36:34.102Z,29.00
2018-07-03T17:39:14.527Z,29.60
2018-07-03T17:44:14.272Z,29.30
2018-07-03T17:46:51.764Z,29.70
2018-07-03T17:49:29.272Z,30.00
2018-07-03T17:52:06.720Z,31.10
2018-07-03T17:54:46.475Z,31.30
2018-07-03T17:57:25.127Z,30.60
2018-07-03T18:00:02.800Z,30.90
2018-07-03T18:02:39.213Z,30.10
2018-07-03T18:05:16.481Z,30.30
2018-07-03T18:07:53.713Z,31.00
2018-07-03T18:10:30.521Z,31.70
2018-07-03T18:13:08.416Z,32.60
2018-07-03T18:15:45.607Z,33.40
2018-07-03T18:18:21.814Z,33.00
2018-07-03T18:20:58.777Z,33.30
2018-07-03T18:23:35.957Z,33.10
2018-07-03T18:26:14.054Z,32.90
2018-07-03T18:28:50.511Z,32.40
2018-07-03T18:31:27.413Z,34.00
2018-07-03T18:34:05.256Z,32.70
2018-07-03T18:36:41.244Z,32.90
2018-07-03T18:39:17.432Z,33.00
2018-07-03T18:41:55.166Z,33.50
2018-07-03T18:44:31.424Z,33.90
2018-07-03T18:47:08.826Z,33.60
2018-07-03T18:49:47.457Z,33.10
2018-07-03T18:52:23.838Z,34.20
2018-07-03T18:55:00.996Z,33.30
2018-07-03T18:57:37.184Z,34.10
2018-07-03T19:00:13.717Z,34.40
2018-07-03T19:02:50.196Z,34.00
2018-07-03T19:05:27.716Z,33.70
2018-07-03T19:08:05.748Z,35.10
2018-07-03T19:10:42.537Z,34.40
2018-07-03T19:13:21.557Z,35.00
2018-07-03T19:15:58.293Z,34.90
2018-07-03T19:18:36.290Z,35.00
2018-07-03T19:21:15.021Z,35.70
2018-07-03T19:23:53.017Z,35.80
2018-07-03T19:26:30.947Z,36.60
2018-07-03T19:29:10.158Z,36.00
2018-07-03T19:31:50.141Z,36.90
2018-07-03T19:34:27.781Z,36.60
2018-07-03T19:37:05.164Z,37.10
2018-07-03T19:39:43.006Z,37.70
2018-07-03T19:42:20.665Z,36.70
2018-07-03T19:44:58.497Z,38.90
2018-07-03T19:47:36.215Z,37.20
2018-07-03T19:50:13.168Z,37.60
2018-07-03T19:52:50.264Z,37.80
2018-07-03T19:55:27.505Z,37.10
2018-07-03T19:58:03.987Z,36.60
2018-07-03T20:00:43.009Z,36.50
2018-07-03T20:03:22.873Z,36.60
2018-07-03T20:06:00.557Z,36.80
2018-07-03T20:08:36.996Z,37.10
2018-07-03T20:11:15.727Z,37.70
2018-07-03T20:13:54.705Z,37.20
2018-07-03T20:16:31.928Z,38.10
2018-07-03T20:19:13.145Z,38.40
2018-07-03T20:21:50.380Z,38.60
2018-07-03T20:24:28.320Z,38.20
2018-07-03T20:27:05.732Z,38.50
2018-07-03T20:29:42.669Z,38.70
2018-07-03T20:32:18.330Z,38.70
2018-07-03T20:34:54.562Z,39.10
2018-07-03T20:37:42.497Z,39.60
2018-07-03T20:40:21.078Z,38.90
2018-07-03T20:42:59.078Z,39.20
2018-07-03T20:45:36.485Z,39.20
2018-07-03T20:48:12.938Z,39.50
2018-07-03T20:50:49.761Z,40.20
2018-07-03T20:53:27.513Z,39.50
2018-07-03T20:56:06.888Z,39.20
2018-07-03T20:58:44.679Z,39.40
2018-07-03T21:01:22.098Z,40.00
2018-07-03T21:03:58.974Z,39.80
2018-07-03T21:06:35.756Z,40.00
2018-07-03T21:09:12.050Z,39.90
2018-07-03T21:11:49.618Z,40.10
2018-07-03T21:14:27.581Z,40.20
2018-07-03T21:17:05.420Z,40.40
2018-07-03T21:19:42.546Z,40.80
2018-07-03T21:22:20.184Z,40.90
2018-07-03T21:24:58.032Z,41.50
2018-07-03T21:27:35.837Z,41.50
2018-07-03T21:30:12.895Z,41.30
2018-07-03T21:32:51.163Z,41.90
2018-07-03T21:35:28.924Z,41.50
2018-07-03T21:38:08.281Z,41.90
2018-07-03T21:40:44.444Z,42.30
2018-07-03T21:43:21.921Z,42.80
2018-07-03T21:45:58.766Z,42.70
2018-07-03T21:48:35.603Z,43.50
2018-07-03T21:51:12.648Z,44.00
2018-07-03T21:53:50.426Z,44.50
2018-07-03T21:56:27.723Z,45.00
2018-07-03T21:59:04.442Z,45.30
2018-07-03T22:01:41.585Z,45.50
2018-07-03T22:04:19.744Z,45.90
2018-07-03T22:06:56.049Z,45.90
2018-07-03T22:09:32.973Z,46.40
2018-07-03T22:12:10.857Z,46.40
2018-07-03T22:14:46.304Z,46.50
2018-07-03T22:17:22.725Z,47.00
2018-07-03T22:19:59.784Z,48.00
2018-07-03T22:22:37.268Z,47.60
2018-07-03T22:25:14.223Z,47.10
2018-07-03T22:27:51.666Z,47.30
2018-07-03T22:30:27.240Z,47.30
2018-07-03T22:33:03.696Z,47.10
2018-07-03T22:35:41.429Z,47.50
2018-07-03T22:38:17.620Z,47.80
2018-07-03T22:40:54.696Z,48.70
2018-07-03T22:43:32.451Z,48.20
2018-07-03T22:46:09.542Z,47.10
2018-07-03T22:48:47.617Z,47.50
2018-07-03T22:51:24.610Z,48.60
2018-07-03T22:54:01.931Z,48.50
2018-07-03T22:56:39.631Z,48.70
2018-07-03T22:59:15.856Z,49.00
2018-07-03T23:01:51.960Z,48.90
2018-07-03T23:04:30.050Z,46.90
2018-07-03T23:07:07.164Z,48.50
2018-07-03T23:09:44.571Z,47.60
2018-07-03T23:12:20.709Z,47.80
2018-07-03T23:14:56.655Z,47.60
2018-07-03T23:17:34.475Z,47.60
2018-07-03T23:20:10.924Z,47.70
2018-07-03T23:22:47.754Z,47.70
2018-07-03T23:25:24.217Z,47.80
2018-07-03T23:28:01.560Z,48.40
2018-07-03T23:30:37.820Z,48.40
2018-07-03T23:33:14.223Z,48.60
2018-07-03T23:35:51.845Z,49.00
2018-07-03T23:38:28.697Z,49.10
2018-07-03T23:41:06.805Z,49.00
2018-07-03T23:43:45.205Z,49.60
2018-07-03T23:46:38.026Z,49.80
2018-07-03T23:49:32.248Z,50.00
2018-07-03T23:52:24.952Z,50.10
2018-07-03T23:55:19.336Z,50.60
2018-07-03T23:58:13.974Z,50.90
